Terminal Aerodrome Forecast
Issued by NWS Charleston, WV

Current Version | Previous Version | Text Only | Print | Product List | Glossary Off
Versions: 1 2 3 4 5 6 7 8 9 10 11 12 13 14 15 16 17 18 19 20 21

000
FTUS41 KRLX 291120
TAFEKN
TAF
KEKN 291120Z 2912/3012 00000KT 1/4SM FG VV002
     FM291300 VRB03KT 3SM HZ FEW025
     FM291400 VRB03KT P6SM SCT040=

USA.gov is the U.S. government's official web portal to all federal, state and local government web resources and services.